createdAt,value
2019-01-26T00:00:36.255Z,0
2019-01-26T00:01:36.010Z,0
2019-01-26T00:02:36.281Z,0
2019-01-26T00:03:36.050Z,0
2019-01-26T00:04:36.068Z,0
2019-01-26T00:05:36.076Z,0
2019-01-26T00:06:36.119Z,0
2019-01-26T00:07:36.366Z,0
2019-01-26T00:08:36.627Z,0
2019-01-26T00:09:36.120Z,0
2019-01-26T00:10:36.147Z,0
2019-01-26T00:11:35.908Z,0
2019-01-26T00:12:35.907Z,0
2019-01-26T00:13:36.188Z,0
2019-01-26T00:14:36.474Z,0
2019-01-26T00:15:36.364Z,0
2019-01-26T00:16:36.229Z,0
2019-01-26T00:17:36.499Z,0
2019-01-26T00:18:37.727Z,0
2019-01-26T00:19:36.788Z,0
2019-01-26T00:20:41.113Z,0
2019-01-26T00:21:36.303Z,0
2019-01-26T00:22:36.327Z,0
2019-01-26T00:23:36.850Z,0
2019-01-26T00:24:36.345Z,0
2019-01-26T00:25:36.622Z,0
2019-01-26T00:26:41.246Z,0
2019-01-26T00:27:36.922Z,0
2019-01-26T00:28:36.148Z,0
2019-01-26T00:29:36.429Z,0
2019-01-26T00:30:36.694Z,0
2019-01-26T00:31:36.706Z,0
2019-01-26T00:32:36.219Z,0
2019-01-26T00:33:36.479Z,0
2019-01-26T00:34:36.762Z,0
2019-01-26T00:35:37.030Z,0
2019-01-26T00:36:36.530Z,0
2019-01-26T00:37:36.819Z,0
2019-01-26T00:38:36.303Z,0
2019-01-26T00:39:36.577Z,0
2019-01-26T00:40:36.834Z,0
2019-01-26T00:41:37.106Z,0
2019-01-26T00:42:37.128Z,0
2019-01-26T00:43:36.616Z,0
2019-01-26T00:44:36.634Z,0
2019-01-26T00:45:36.646Z,0
2019-01-26T00:46:36.420Z,0
2019-01-26T00:47:36.691Z,0
2019-01-26T00:48:36.445Z,0
2019-01-26T00:49:36.701Z,0
2019-01-26T00:50:36.977Z,0
2019-01-26T00:51:36.742Z,0
2019-01-26T00:52:36.501Z,0
2019-01-26T00:53:36.767Z,0
2019-01-26T00:54:36.806Z,0
2019-01-26T00:55:37.072Z,0
2019-01-26T00:56:36.556Z,0
2019-01-26T00:57:37.082Z,0
2019-01-26T00:58:36.839Z,0
2019-01-26T00:59:37.136Z,0
2019-01-26T01:00:37.121Z,0
2019-01-26T01:01:36.626Z,0
2019-01-26T01:02:37.162Z,0
2019-01-26T01:03:37.190Z,0
2019-01-26T01:04:36.935Z,0
2019-01-26T01:05:36.954Z,0
2019-01-26T01:06:37.213Z,0
2019-01-26T01:07:37.488Z,0
2019-01-26T01:08:37.272Z,0
2019-01-26T01:09:37.073Z,0
2019-01-26T01:10:37.012Z,0
2019-01-26T01:11:37.054Z,0
2019-01-26T01:12:37.041Z,0
2019-01-26T01:13:37.306Z,0
2019-01-26T01:14:37.336Z,0
2019-01-26T01:15:37.383Z,0
2019-01-26T01:16:43.258Z,0
2019-01-26T01:17:37.380Z,0
2019-01-26T01:18:37.402Z,0
2019-01-26T01:19:37.422Z,0
2019-01-26T01:20:37.443Z,0
2019-01-26T01:21:37.211Z,0
2019-01-26T01:22:37.450Z,0
2019-01-26T01:23:37.717Z,0
2019-01-26T01:24:37.226Z,0
2019-01-26T01:25:36.975Z,0
2019-01-26T01:26:37.244Z,0
2019-01-26T01:27:37.261Z,0
2019-01-26T01:28:37.285Z,0
2019-01-26T01:29:37.031Z,0
2019-01-26T01:30:37.316Z,0
2019-01-26T01:31:37.592Z,0
2019-01-26T01:32:37.608Z,0
2019-01-26T01:33:37.095Z,0
2019-01-26T01:34:37.377Z,0
2019-01-26T01:35:37.650Z,0
2019-01-26T01:36:37.139Z,0
2019-01-26T01:37:37.663Z,0
2019-01-26T01:38:37.707Z,0
2019-01-26T01:39:38.150Z,0
2019-01-26T01:40:37.456Z,0
2019-01-26T01:41:37.722Z,0
2019-01-26T01:42:37.739Z,0
2019-01-26T01:43:37.227Z,0
2019-01-26T01:44:37.515Z,0
2019-01-26T01:45:37.810Z,0
2019-01-26T01:46:42.833Z,0
2019-01-26T01:47:37.630Z,0
2019-01-26T01:48:37.563Z,0
2019-01-26T01:49:37.325Z,0
2019-01-26T01:50:37.856Z,0
2019-01-26T01:51:37.605Z,0
2019-01-26T01:52:38.120Z,0
2019-01-26T01:53:37.911Z,0
2019-01-26T01:54:37.396Z,0
2019-01-26T01:55:37.943Z,0
2019-01-26T01:56:37.693Z,0
2019-01-26T01:57:37.968Z,0
2019-01-26T01:58:37.994Z,0
2019-01-26T01:59:37.732Z,0
2019-01-26T02:00:38.012Z,0
2019-01-26T02:01:37.764Z,0
2019-01-26T02:02:38.029Z,0
2019-01-26T02:03:38.053Z,0
2019-01-26T02:04:37.804Z,0
2019-01-26T02:05:37.820Z,0
2019-01-26T02:06:38.109Z,0
2019-01-26T02:07:38.357Z,0
2019-01-26T02:08:37.605Z,0
2019-01-26T02:09:37.874Z,0
2019-01-26T02:10:38.169Z,0
2019-01-26T02:11:37.923Z,0
2019-01-26T02:12:37.922Z,0
2019-01-26T02:15:20.349Z,0
2019-01-26T02:16:20.874Z,0
2019-01-26T02:17:20.629Z,0
2019-01-26T02:18:20.649Z,0
2019-01-26T02:19:20.662Z,0
2019-01-26T02:20:20.695Z,0
2019-01-26T02:21:20.688Z,0
2019-01-26T02:22:20.959Z,0
2019-01-26T02:23:20.717Z,0
2019-01-26T02:24:20.733Z,0
2019-01-26T02:25:20.748Z,0
2019-01-26T02:26:21.025Z,0
2019-01-26T02:27:20.520Z,0
2019-01-26T02:28:20.794Z,0
2019-01-26T02:29:20.803Z,0
2019-01-26T02:30:21.091Z,0
2019-01-26T02:31:20.839Z,0
2019-01-26T02:32:21.111Z,0
2019-01-26T02:33:20.610Z,0
2019-01-26T02:34:20.623Z,0
2019-01-26T02:35:20.894Z,0
2019-01-26T02:36:21.165Z,0
2019-01-26T02:37:20.934Z,0
2019-01-26T02:38:21.204Z,0
2019-01-26T02:39:21.212Z,0
2019-01-26T02:40:21.236Z,0
2019-01-26T02:41:21.497Z,0
2019-01-26T02:42:21.287Z,0
2019-01-26T02:43:21.009Z,0
2019-01-26T02:44:21.548Z,0
2019-01-26T02:45:20.785Z,0
2019-01-26T02:46:21.311Z,0
2019-01-26T02:47:21.084Z,0
2019-01-26T02:48:21.602Z,0
2019-01-26T02:49:20.841Z,0
2019-01-26T02:50:21.119Z,0
2019-01-26T02:51:20.869Z,0
2019-01-26T02:52:21.144Z,0
2019-01-26T02:53:21.168Z,0
2019-01-26T02:54:21.174Z,0
2019-01-26T02:55:21.233Z,0
2019-01-26T02:56:21.470Z,0
2019-01-26T02:57:21.215Z,0
2019-01-26T02:58:21.238Z,0
2019-01-26T02:59:21.524Z,0
2019-01-26T03:00:24.158Z,0
2019-01-26T03:01:21.019Z,0
2019-01-26T03:02:21.031Z,0
2019-01-26T03:03:21.586Z,0
2019-01-26T03:04:21.328Z,0
2019-01-26T03:05:21.333Z,0
2019-01-26T03:06:21.356Z,0
2019-01-26T03:07:21.368Z,0
2019-01-26T03:08:21.654Z,0
2019-01-26T03:09:21.392Z,0
2019-01-26T03:10:21.672Z,0
2019-01-26T03:11:21.953Z,0
2019-01-26T03:12:21.451Z,0
2019-01-26T03:13:21.469Z,0
2019-01-26T03:14:21.464Z,0
2019-01-26T03:15:21.482Z,0
2019-01-26T03:16:21.502Z,0
2019-01-26T03:17:21.513Z,0
2019-01-26T03:18:21.526Z,0
2019-01-26T03:19:21.828Z,0
2019-01-26T03:20:21.560Z,0
2019-01-26T03:21:21.829Z,0
2019-01-26T03:22:21.589Z,0
2019-01-26T03:23:21.856Z,0
2019-01-26T03:24:21.634Z,0
2019-01-26T03:25:21.445Z,0
2019-01-26T03:26:22.157Z,0
2019-01-26T03:27:21.677Z,0
2019-01-26T03:28:21.948Z,0
2019-01-26T03:29:21.958Z,0
2019-01-26T03:30:21.721Z,0
2019-01-26T03:31:22.262Z,0
2019-01-26T03:32:21.785Z,0
2019-01-26T03:33:21.898Z,0
2019-01-26T03:34:21.762Z,0
2019-01-26T03:35:21.780Z,0
2019-01-26T03:36:22.313Z,0
2019-01-26T03:37:21.844Z,0
2019-01-26T03:38:21.578Z,0
2019-01-26T03:39:22.094Z,0
2019-01-26T03:40:21.853Z,0
2019-01-26T03:41:22.454Z,0
2019-01-26T03:42:21.632Z,0
2019-01-26T03:43:22.160Z,0
2019-01-26T03:44:21.659Z,0
2019-01-26T03:45:21.977Z,0
2019-01-26T03:46:21.963Z,0
2019-01-26T03:47:22.211Z,0
2019-01-26T03:48:22.486Z,0
2019-01-26T03:49:21.989Z,0
2019-01-26T03:50:21.736Z,0
2019-01-26T03:51:22.024Z,0
2019-01-26T03:52:22.048Z,0
2019-01-26T03:53:22.305Z,0
2019-01-26T03:54:22.074Z,0
2019-01-26T03:55:22.600Z,0
2019-01-26T03:56:22.095Z,0
2019-01-26T03:57:22.810Z,0
2019-01-26T03:58:22.126Z,0
2019-01-26T03:59:21.876Z,0
2019-01-26T04:00:22.680Z,0
2019-01-26T04:01:21.900Z,0
2019-01-26T04:02:22.182Z,0
2019-01-26T04:03:22.191Z,0
2019-01-26T04:04:22.207Z,0
2019-01-26T04:05:22.243Z,0
2019-01-26T04:06:22.233Z,0
2019-01-26T04:07:22.770Z,0
2019-01-26T04:08:22.003Z,0
2019-01-26T04:09:22.293Z,0
2019-01-26T04:10:22.309Z,0
2019-01-26T04:11:22.314Z,0
2019-01-26T04:12:22.335Z,0
2019-01-26T04:13:22.598Z,0
2019-01-26T04:14:23.734Z,0
2019-01-26T04:15:22.631Z,0
2019-01-26T04:16:22.386Z,0
2019-01-26T04:17:28.631Z,0
2019-01-26T04:18:22.688Z,0
2019-01-26T04:19:22.442Z,0
2019-01-26T04:20:22.452Z,0
2019-01-26T04:21:22.200Z,0
2019-01-26T04:22:22.749Z,0
2019-01-26T04:23:22.240Z,0
2019-01-26T04:24:22.506Z,0
2019-01-26T04:25:22.516Z,0
2019-01-26T04:26:22.790Z,0
2019-01-26T04:27:22.544Z,0
2019-01-26T04:28:22.569Z,0
2019-01-26T04:29:22.578Z,0
2019-01-26T04:30:22.877Z,0
2019-01-26T04:31:22.605Z,0
2019-01-26T04:32:22.364Z,0
2019-01-26T04:33:22.634Z,0
2019-01-26T04:34:23.168Z,0
2019-01-26T04:35:22.680Z,0
2019-01-26T04:36:22.947Z,0
2019-01-26T04:37:22.436Z,0
2019-01-26T04:38:22.739Z,0
2019-01-26T04:39:22.729Z,0
2019-01-26T04:40:23.033Z,0
2019-01-26T04:41:22.497Z,0
2019-01-26T04:42:23.028Z,0
2019-01-26T04:43:22.799Z,0
2019-01-26T04:44:22.800Z,0
2019-01-26T04:45:22.817Z,0
2019-01-26T04:46:23.106Z,0
2019-01-26T04:47:30.408Z,0
2019-01-26T04:48:23.115Z,0
2019-01-26T04:49:22.883Z,0
2019-01-26T04:50:22.953Z,0
2019-01-26T04:51:22.905Z,0
2019-01-26T04:52:22.928Z,0
2019-01-26T04:53:23.191Z,0
2019-01-26T04:54:22.951Z,0
2019-01-26T04:55:23.022Z,0
2019-01-26T04:56:23.295Z,0
2019-01-26T04:57:22.990Z,0
2019-01-26T04:58:22.746Z,0
2019-01-26T04:59:23.026Z,0
2019-01-26T05:00:23.038Z,0
2019-01-26T05:01:22.792Z,0
2019-01-26T05:02:23.071Z,0
2019-01-26T05:03:23.093Z,0
2019-01-26T05:04:23.114Z,0
2019-01-26T05:05:23.367Z,0
2019-01-26T05:06:23.402Z,0
2019-01-26T05:07:23.151Z,0
2019-01-26T05:08:23.457Z,0
2019-01-26T05:09:23.171Z,0
2019-01-26T05:10:23.439Z,0
2019-01-26T05:11:23.459Z,0
2019-01-26T05:12:23.225Z,0
2019-01-26T05:13:23.232Z,0
2019-01-26T05:14:23.251Z,0
2019-01-26T05:15:23.271Z,0
2019-01-26T05:16:23.790Z,0
2019-01-26T05:17:23.555Z,0
2019-01-26T05:18:23.577Z,0
2019-01-26T05:19:23.320Z,0
2019-01-26T05:20:23.091Z,0
2019-01-26T05:21:23.362Z,0
2019-01-26T05:22:23.359Z,0
2019-01-26T05:23:23.382Z,0
2019-01-26T05:24:23.393Z,0
2019-01-26T05:25:23.708Z,0
2019-01-26T05:26:23.697Z,0
2019-01-26T05:27:23.972Z,0
2019-01-26T05:28:23.200Z,0
2019-01-26T05:29:23.803Z,0
2019-01-26T05:30:23.489Z,0
2019-01-26T05:31:23.759Z,0
2019-01-26T05:32:23.767Z,0
2019-01-26T05:33:24.192Z,0
2019-01-26T05:34:23.284Z,0
2019-01-26T05:35:23.569Z,0
2019-01-26T05:36:23.315Z,0
2019-01-26T05:37:23.594Z,0
2019-01-26T05:38:23.349Z,0
2019-01-26T05:39:24.413Z,0
2019-01-26T05:40:23.647Z,0
2019-01-26T05:41:23.389Z,0
2019-01-26T05:42:23.929Z,0
2019-01-26T05:43:23.422Z,0
2019-01-26T05:44:23.690Z,0
2019-01-26T05:45:24.228Z,0
2019-01-26T05:46:24.251Z,0
2019-01-26T05:47:24.023Z,0
2019-01-26T05:48:23.761Z,0
2019-01-26T05:49:23.768Z,0
2019-01-26T05:50:23.525Z,0
2019-01-26T05:51:24.168Z,0
2019-01-26T05:52:23.815Z,0
2019-01-26T05:53:23.833Z,0
2019-01-26T05:54:24.102Z,0
2019-01-26T05:55:23.867Z,0
2019-01-26T05:56:23.870Z,0
2019-01-26T05:57:24.181Z,0
2019-01-26T05:58:24.201Z,0
2019-01-26T05:59:23.915Z,0
2019-01-26T06:00:24.192Z,0
2019-01-26T06:01:23.696Z,0
2019-01-26T06:02:23.965Z,0
2019-01-26T06:03:23.982Z,0
2019-01-26T06:04:23.994Z,0
2019-01-26T06:05:24.275Z,0
2019-01-26T06:06:24.277Z,0
2019-01-26T06:07:24.295Z,0
2019-01-26T06:08:24.049Z,0
2019-01-26T06:09:23.814Z,0
2019-01-26T06:10:24.126Z,0
2019-01-26T06:11:24.356Z,0
2019-01-26T06:12:24.131Z,0
2019-01-26T06:13:24.648Z,0
2019-01-26T06:14:24.156Z,0
2019-01-26T06:15:24.162Z,0
2019-01-26T06:16:24.273Z,0
2019-01-26T06:17:24.188Z,0
2019-01-26T06:18:24.235Z,0
2019-01-26T06:19:24.733Z,0
2019-01-26T06:20:24.264Z,0
2019-01-26T06:21:23.988Z,0
2019-01-26T06:22:24.532Z,0
2019-01-26T06:23:24.275Z,0
2019-01-26T06:24:24.296Z,0
2019-01-26T06:25:24.313Z,0
2019-01-26T06:26:24.592Z,0
2019-01-26T06:27:24.331Z,0
2019-01-26T06:28:24.612Z,0
2019-01-26T06:29:24.106Z,0
2019-01-26T06:30:24.918Z,0
2019-01-26T06:31:24.396Z,0
2019-01-26T06:32:24.423Z,0
2019-01-26T06:33:24.695Z,0
2019-01-26T06:34:24.200Z,0
2019-01-26T06:35:24.204Z,0
2019-01-26T06:36:24.376Z,0
2019-01-26T06:37:24.999Z,0
2019-01-26T06:38:24.498Z,0
2019-01-26T06:39:24.308Z,0
2019-01-26T06:40:24.548Z,0
2019-01-26T06:41:24.799Z,0
2019-01-26T06:42:24.576Z,0
2019-01-26T06:43:24.317Z,0
2019-01-26T06:44:24.598Z,0
2019-01-26T06:45:24.856Z,0
2019-01-26T06:46:24.625Z,0
2019-01-26T06:47:24.379Z,0
2019-01-26T06:48:25.182Z,0
2019-01-26T06:49:24.406Z,0
2019-01-26T06:50:24.696Z,0
2019-01-26T06:51:24.952Z,0
2019-01-26T06:52:24.713Z,0
2019-01-26T06:53:24.725Z,0
2019-01-26T06:54:25.029Z,0
2019-01-26T06:55:24.762Z,0
2019-01-26T06:56:25.057Z,0
2019-01-26T06:57:25.047Z,0
2019-01-26T06:58:25.076Z,0
2019-01-26T06:59:24.560Z,0
2019-01-26T07:00:25.105Z,0
2019-01-26T07:01:24.846Z,0
2019-01-26T07:02:24.873Z,4
2019-01-26T07:03:24.878Z,4
2019-01-26T07:04:25.183Z,4
2019-01-26T07:05:24.907Z,4
2019-01-26T07:06:25.201Z,0
2019-01-26T07:07:24.940Z,4
2019-01-26T07:08:25.241Z,4
2019-01-26T07:09:25.234Z,8
2019-01-26T07:10:25.515Z,8
2019-01-26T07:11:24.740Z,8
2019-01-26T07:12:25.288Z,4
2019-01-26T07:13:24.778Z,4
2019-01-26T07:14:25.044Z,8
2019-01-26T07:15:25.319Z,8
2019-01-26T07:16:25.343Z,8
2019-01-26T07:17:24.833Z,12
2019-01-26T07:18:25.382Z,12
2019-01-26T07:19:25.127Z,12
2019-01-26T07:20:25.404Z,12
2019-01-26T07:21:25.417Z,12
2019-01-26T07:22:25.181Z,12
2019-01-26T07:23:25.436Z,12
2019-01-26T07:24:25.478Z,12
2019-01-26T07:25:25.209Z,16
2019-01-26T07:26:25.236Z,16
2019-01-26T07:27:25.239Z,16
2019-01-26T07:28:25.268Z,20
2019-01-26T07:29:25.527Z,20
2019-01-26T07:30:25.810Z,24
2019-01-26T07:31:25.304Z,32
2019-01-26T07:32:25.072Z,32
2019-01-26T07:33:25.367Z,32
2019-01-26T07:34:25.611Z,32
2019-01-26T07:35:25.625Z,28
2019-01-26T07:36:25.381Z,32
2019-01-26T07:37:25.142Z,36
2019-01-26T07:38:25.679Z,40
2019-01-26T07:39:25.424Z,40
2019-01-26T07:40:25.455Z,40
2019-01-26T07:41:25.451Z,36
2019-01-26T07:42:25.746Z,48
2019-01-26T07:43:25.999Z,44
2019-01-26T07:44:25.769Z,52
2019-01-26T07:45:25.774Z,60
2019-01-26T07:46:25.803Z,56
2019-01-26T07:47:25.289Z,60
2019-01-26T07:48:25.568Z,60
2019-01-26T07:49:25.316Z,68
2019-01-26T07:50:25.846Z,56
2019-01-26T07:51:25.861Z,60
2019-01-26T07:52:26.133Z,72
2019-01-26T07:53:25.893Z,68
2019-01-26T07:54:26.546Z,68
2019-01-26T07:55:25.923Z,84
2019-01-26T07:56:25.681Z,88
2019-01-26T07:57:25.693Z,72
2019-01-26T07:58:25.709Z,80
2019-01-26T07:59:26.892Z,80
2019-01-26T08:00:25.486Z,80
2019-01-26T08:01:26.013Z,88
2019-01-26T08:02:25.772Z,112
2019-01-26T08:03:26.047Z,88
2019-01-26T08:04:26.061Z,88
2019-01-26T08:05:25.820Z,104
2019-01-26T08:06:25.831Z,116
2019-01-26T08:07:25.849Z,100
2019-01-26T08:08:25.860Z,120
2019-01-26T08:09:25.619Z,120
2019-01-26T08:10:26.154Z,120
2019-01-26T08:11:26.435Z,144
2019-01-26T08:12:26.183Z,144
2019-01-26T08:13:26.206Z,160
2019-01-26T08:14:26.215Z,164
2019-01-26T08:15:26.495Z,164
2019-01-26T08:16:26.241Z,172
2019-01-26T08:17:26.259Z,180
2019-01-26T08:18:31.152Z,184
2019-01-26T08:19:26.289Z,208
2019-01-26T08:20:25.796Z,236
2019-01-26T08:21:26.319Z,220
2019-01-26T08:22:26.077Z,244
2019-01-26T08:23:25.834Z,268
2019-01-26T08:24:26.108Z,204
2019-01-26T08:25:26.383Z,200
2019-01-26T08:26:26.401Z,176
2019-01-26T08:27:26.154Z,200
2019-01-26T08:28:26.171Z,200
2019-01-26T08:29:25.927Z,188
2019-01-26T08:30:26.467Z,196
2019-01-26T08:31:26.224Z,192
2019-01-26T08:32:25.973Z,172
2019-01-26T08:33:25.993Z,180
2019-01-26T08:34:26.520Z,180
2019-01-26T08:35:26.797Z,176
2019-01-26T08:36:26.553Z,176
2019-01-26T08:37:26.308Z,204
2019-01-26T08:38:26.068Z,192
2019-01-26T08:39:26.340Z,184
2019-01-26T08:40:26.615Z,152
2019-01-26T08:41:26.372Z,168
2019-01-26T08:42:26.660Z,156
2019-01-26T08:43:26.147Z,176
2019-01-26T08:44:26.696Z,148
2019-01-26T08:45:26.441Z,192
2019-01-26T08:46:26.467Z,184
2019-01-26T08:47:26.771Z,236
2019-01-26T08:48:33.711Z,224
2019-01-26T08:49:26.496Z,236
2019-01-26T08:50:27.052Z,268
2019-01-26T08:51:26.286Z,212
2019-01-26T08:52:26.864Z,228
2019-01-26T08:53:26.557Z,216
2019-01-26T08:54:26.853Z,236
2019-01-26T08:55:26.847Z,232
2019-01-26T08:56:26.617Z,260
2019-01-26T08:57:26.618Z,280
2019-01-26T08:58:26.637Z,256
2019-01-26T08:59:26.398Z,292
2019-01-26T09:00:26.677Z,296
2019-01-26T09:01:26.944Z,288
2019-01-26T09:02:32.524Z,304
2019-01-26T09:03:26.711Z,372
2019-01-26T09:04:26.985Z,320
2019-01-26T09:05:27.266Z,388
2019-01-26T09:06:26.760Z,376
2019-01-26T09:07:27.059Z,304
2019-01-26T09:08:27.048Z,288
2019-01-26T09:09:26.808Z,292
2019-01-26T09:10:26.849Z,336
2019-01-26T09:11:26.841Z,292
2019-01-26T09:12:26.853Z,320
2019-01-26T09:13:26.867Z,372
2019-01-26T09:14:26.889Z,396
2019-01-26T09:15:26.903Z,440
2019-01-26T09:16:26.913Z,404
2019-01-26T09:17:26.932Z,380
2019-01-26T09:18:26.956Z,416
2019-01-26T09:19:27.219Z,456
2019-01-26T09:20:27.234Z,472
2019-01-26T09:21:27.252Z,412
2019-01-26T09:22:26.755Z,352
2019-01-26T09:23:26.827Z,312
2019-01-26T09:24:27.041Z,280
2019-01-26T09:25:26.798Z,268
2019-01-26T09:26:27.330Z,316
2019-01-26T09:27:27.082Z,400
2019-01-26T09:28:27.419Z,412
2019-01-26T09:29:27.635Z,384
2019-01-26T09:30:27.140Z,428
2019-01-26T09:31:27.410Z,408
2019-01-26T09:32:27.161Z,344
2019-01-26T09:33:27.439Z,368
2019-01-26T09:34:27.199Z,404
2019-01-26T09:35:27.211Z,428
2019-01-26T09:36:27.231Z,468
2019-01-26T09:37:27.502Z,428
2019-01-26T09:38:27.515Z,472
2019-01-26T09:39:27.273Z,464
2019-01-26T09:40:27.549Z,612
2019-01-26T09:41:27.562Z,524
2019-01-26T09:42:27.586Z,440
2019-01-26T09:43:27.645Z,620
2019-01-26T09:44:27.351Z,480
2019-01-26T09:45:27.369Z,408
2019-01-26T09:46:27.124Z,436
2019-01-26T09:47:27.652Z,444
2019-01-26T09:48:27.983Z,452
2019-01-26T09:49:27.429Z,572
2019-01-26T09:50:27.447Z,452
2019-01-26T09:51:27.204Z,376
2019-01-26T09:52:27.737Z,328
2019-01-26T09:53:27.236Z,300
2019-01-26T09:54:27.508Z,288
2019-01-26T09:55:27.527Z,288
2019-01-26T09:56:27.545Z,240
2019-01-26T09:57:28.070Z,280
2019-01-26T09:58:27.574Z,240
2019-01-26T09:59:27.607Z,288
2019-01-26T10:00:27.863Z,296
2019-01-26T10:01:27.884Z,332
2019-01-26T10:02:28.155Z,380
2019-01-26T10:03:28.220Z,388
2019-01-26T10:04:27.671Z,436
2019-01-26T10:05:27.758Z,388
2019-01-26T10:06:27.444Z,392
2019-01-26T10:07:27.715Z,424
2019-01-26T10:08:27.781Z,392
2019-01-26T10:09:28.001Z,408
2019-01-26T10:10:27.759Z,452
2019-01-26T10:11:28.037Z,388
2019-01-26T10:12:27.536Z,392
2019-01-26T10:13:27.548Z,400
2019-01-26T10:14:28.084Z,492
2019-01-26T10:15:27.590Z,484
2019-01-26T10:16:28.120Z,588
2019-01-26T10:17:27.870Z,648
2019-01-26T10:18:28.170Z,696
2019-01-26T10:19:27.903Z,708
2019-01-26T10:20:27.922Z,844
2019-01-26T10:21:28.212Z,900
2019-01-26T10:22:27.845Z,692
2019-01-26T10:23:28.282Z,656
2019-01-26T10:24:27.981Z,528
2019-01-26T10:25:27.738Z,656
2019-01-26T10:26:28.020Z,612
2019-01-26T10:27:28.297Z,620
2019-01-26T10:28:28.614Z,636
2019-01-26T10:29:28.067Z,608
2019-01-26T10:30:27.815Z,528
2019-01-26T10:31:28.354Z,596
2019-01-26T10:32:27.852Z,588
2019-01-26T10:33:28.130Z,604
2019-01-26T10:34:28.396Z,556
2019-01-26T10:35:27.896Z,492
2019-01-26T10:36:28.175Z,512
2019-01-26T10:37:28.451Z,528
2019-01-26T10:38:28.465Z,552
2019-01-26T10:39:28.221Z,508
2019-01-26T10:40:27.980Z,504
2019-01-26T10:41:27.998Z,480
2019-01-26T10:42:28.007Z,472
2019-01-26T10:43:28.592Z,468
2019-01-26T10:44:28.046Z,472
2019-01-26T10:45:28.060Z,508
2019-01-26T10:46:28.336Z,452
2019-01-26T10:47:28.343Z,428
2019-01-26T10:48:28.675Z,524
2019-01-26T10:49:28.387Z,480
2019-01-26T10:50:28.136Z,516
2019-01-26T10:51:28.925Z,452
2019-01-26T10:52:28.429Z,496
2019-01-26T10:53:28.442Z,520
2019-01-26T10:54:28.461Z,508
2019-01-26T10:55:28.471Z,516
2019-01-26T10:56:28.497Z,424
2019-01-26T10:57:28.761Z,472
2019-01-26T10:58:28.518Z,424
2019-01-26T10:59:28.540Z,464
2019-01-26T11:00:28.306Z,428
2019-01-26T11:01:28.826Z,356
2019-01-26T11:02:28.589Z,376
2019-01-26T11:03:28.600Z,400
2019-01-26T11:04:28.360Z,320
2019-01-26T11:05:28.889Z,396
2019-01-26T11:06:28.398Z,316
2019-01-26T11:07:28.923Z,376
2019-01-26T11:08:28.939Z,364
2019-01-26T11:09:28.696Z,356
2019-01-26T11:10:28.970Z,340
2019-01-26T11:11:28.738Z,348
2019-01-26T11:12:29.017Z,344
2019-01-26T11:13:28.506Z,344
2019-01-26T11:14:29.059Z,316
2019-01-26T11:15:29.049Z,348
2019-01-26T11:16:28.550Z,360
2019-01-26T11:17:28.826Z,392
2019-01-26T11:18:29.108Z,380
2019-01-26T11:19:28.596Z,420
2019-01-26T11:20:28.876Z,408
2019-01-26T11:21:29.731Z,376
2019-01-26T11:22:29.160Z,456
2019-01-26T11:23:28.967Z,448
2019-01-26T11:24:29.454Z,364
2019-01-26T11:25:28.966Z,416
2019-01-26T11:26:28.722Z,360
2019-01-26T11:27:28.994Z,404
2019-01-26T11:28:28.746Z,496
2019-01-26T11:29:29.021Z,416
2019-01-26T11:30:29.037Z,456
2019-01-26T11:31:28.792Z,476
2019-01-26T11:32:29.069Z,624
2019-01-26T11:33:29.598Z,536
2019-01-26T11:34:29.121Z,412
2019-01-26T11:35:29.374Z,448
2019-01-26T11:36:29.139Z,448
2019-01-26T11:37:29.145Z,452
2019-01-26T11:38:29.230Z,416
2019-01-26T11:39:29.561Z,372
2019-01-26T11:40:29.210Z,404
2019-01-26T11:41:28.956Z,356
2019-01-26T11:42:29.742Z,408
2019-01-26T11:43:29.806Z,364
2019-01-26T11:44:29.000Z,344
2019-01-26T11:45:29.315Z,444
2019-01-26T11:46:29.567Z,384
2019-01-26T11:47:29.565Z,404
2019-01-26T11:48:29.580Z,380
2019-01-26T11:49:29.085Z,404
2019-01-26T11:50:29.356Z,444
2019-01-26T11:51:29.375Z,448
2019-01-26T11:52:29.381Z,488
2019-01-26T11:53:29.666Z,412
2019-01-26T11:54:29.464Z,452
2019-01-26T11:55:29.706Z,488
2019-01-26T11:56:29.455Z,524
2019-01-26T11:57:29.726Z,564
2019-01-26T11:58:29.488Z,552
2019-01-26T11:59:29.505Z,576
2019-01-26T12:00:29.772Z,640
2019-01-26T12:01:29.533Z,660
2019-01-26T12:02:36.345Z,596
2019-01-26T12:03:29.874Z,652
2019-01-26T12:04:29.851Z,596
2019-01-26T12:05:29.597Z,676
2019-01-26T12:06:30.718Z,684
2019-01-26T12:07:29.883Z,640
2019-01-26T12:08:29.650Z,596
2019-01-26T12:09:29.664Z,500
2019-01-26T12:10:29.673Z,668
2019-01-26T12:11:29.950Z,620
2019-01-26T12:12:29.979Z,612
2019-01-26T12:13:29.984Z,508
2019-01-26T12:14:29.741Z,560
2019-01-26T12:15:29.497Z,492
2019-01-26T12:16:34.208Z,500
2019-01-26T12:17:29.799Z,520
2019-01-26T12:18:29.861Z,488
2019-01-26T12:19:30.087Z,488
2019-01-26T12:20:29.834Z,600
2019-01-26T12:21:30.113Z,532
2019-01-26T12:22:30.381Z,564
2019-01-26T12:23:30.192Z,556
2019-01-26T12:24:30.158Z,484
2019-01-26T12:25:29.915Z,600
2019-01-26T12:26:29.683Z,632
2019-01-26T12:27:29.693Z,516
2019-01-26T12:28:29.964Z,560
2019-01-26T12:29:29.979Z,488
2019-01-26T12:30:31.036Z,432
2019-01-26T12:31:30.009Z,404
2019-01-26T12:32:30.297Z,400
2019-01-26T12:33:29.831Z,484
2019-01-26T12:34:30.326Z,392
2019-01-26T12:35:30.074Z,424
2019-01-26T12:36:30.091Z,340
2019-01-26T12:37:30.112Z,364
2019-01-26T12:38:30.178Z,352
2019-01-26T12:39:30.141Z,312
2019-01-26T12:40:30.415Z,280
2019-01-26T12:41:30.173Z,280
2019-01-26T12:42:29.943Z,324
2019-01-26T12:43:29.996Z,344
2019-01-26T12:44:30.235Z,328
2019-01-26T12:45:30.236Z,284
2019-01-26T12:46:30.528Z,248
2019-01-26T12:47:30.266Z,288
2019-01-26T12:48:30.547Z,328
2019-01-26T12:49:36.531Z,276
2019-01-26T12:50:30.319Z,288
2019-01-26T12:51:30.330Z,296
2019-01-26T12:52:30.093Z,304
2019-01-26T12:53:30.618Z,284
2019-01-26T12:54:30.390Z,284
2019-01-26T12:55:30.396Z,284
2019-01-26T12:56:30.428Z,284
2019-01-26T12:57:30.181Z,312
2019-01-26T12:58:30.703Z,268
2019-01-26T12:59:30.746Z,244
2019-01-26T13:00:30.481Z,260
2019-01-26T13:01:30.230Z,248
2019-01-26T13:02:30.517Z,236
2019-01-26T13:03:30.522Z,232
2019-01-26T13:04:31.297Z,232
2019-01-26T13:05:31.090Z,236
2019-01-26T13:06:30.835Z,248
2019-01-26T13:07:30.333Z,256
2019-01-26T13:08:30.866Z,276
2019-01-26T13:09:30.369Z,256
2019-01-26T13:10:30.645Z,232
2019-01-26T13:11:30.404Z,252
2019-01-26T13:12:30.942Z,200
2019-01-26T13:13:30.946Z,220
2019-01-26T13:14:30.748Z,200
2019-01-26T13:15:30.721Z,200
2019-01-26T13:16:30.488Z,200
2019-01-26T13:17:30.499Z,196
2019-01-26T13:18:31.039Z,200
2019-01-26T13:19:36.786Z,172
2019-01-26T13:20:31.078Z,176
2019-01-26T13:21:31.075Z,160
2019-01-26T13:22:30.835Z,160
2019-01-26T13:23:31.101Z,160
2019-01-26T13:24:30.878Z,148
2019-01-26T13:25:31.137Z,156
2019-01-26T13:26:30.638Z,152
2019-01-26T13:27:31.176Z,160
2019-01-26T13:28:31.191Z,156
2019-01-26T13:29:30.944Z,168
2019-01-26T13:30:31.219Z,148
2019-01-26T13:31:30.974Z,172
2019-01-26T13:32:31.256Z,156
2019-01-26T13:33:30.751Z,160
2019-01-26T13:34:31.336Z,164
2019-01-26T13:35:31.048Z,156
2019-01-26T13:36:30.812Z,168
2019-01-26T13:37:31.344Z,196
2019-01-26T13:38:31.365Z,168
2019-01-26T13:39:30.998Z,152
2019-01-26T13:40:31.409Z,164
2019-01-26T13:41:31.145Z,152
2019-01-26T13:42:31.168Z,160
2019-01-26T13:43:31.430Z,176
2019-01-26T13:44:31.191Z,164
2019-01-26T13:45:30.947Z,168
2019-01-26T13:46:31.238Z,152
2019-01-26T13:47:37.616Z,184
2019-01-26T13:48:31.011Z,168
2019-01-26T13:49:31.008Z,192
2019-01-26T13:50:31.562Z,208
2019-01-26T13:51:31.299Z,216
2019-01-26T13:52:31.332Z,208
2019-01-26T13:53:31.590Z,200
2019-01-26T13:54:31.683Z,236
2019-01-26T13:55:31.627Z,240
2019-01-26T13:56:31.916Z,236
2019-01-26T13:57:31.397Z,228
2019-01-26T13:58:31.674Z,256
2019-01-26T13:59:31.227Z,220
2019-01-26T14:00:31.455Z,228
2019-01-26T14:01:31.206Z,192
2019-01-26T14:02:31.756Z,212
2019-01-26T14:03:31.502Z,180
2019-01-26T14:04:31.529Z,164
2019-01-26T14:05:31.275Z,156
2019-01-26T14:06:31.545Z,164
2019-01-26T14:07:31.306Z,160
2019-01-26T14:08:31.584Z,160
2019-01-26T14:09:31.338Z,152
2019-01-26T14:10:31.624Z,144
2019-01-26T14:11:31.626Z,144
2019-01-26T14:12:31.640Z,132
2019-01-26T14:13:31.915Z,128
2019-01-26T14:14:31.464Z,120
2019-01-26T14:15:31.948Z,116
2019-01-26T14:16:31.714Z,128
2019-01-26T14:17:31.724Z,120
2019-01-26T14:18:31.478Z,120
2019-01-26T14:19:31.807Z,120